createdAt,value
2018-06-30T00:00:11.322Z,20.10
2018-06-30T00:05:07.840Z,20.10
2018-06-30T00:07:36.196Z,20.10
2018-06-30T00:10:04.624Z,20.10
2018-06-30T00:15:01.057Z,20.10
2018-06-30T00:17:29.441Z,19.80
2018-06-30T00:19:57.955Z,19.70
2018-06-30T00:22:26.365Z,19.70
2018-06-30T00:24:54.878Z,19.50
2018-06-30T00:27:28.255Z,19.50
2018-06-30T00:29:57.595Z,19.60
2018-06-30T00:32:25.992Z,19.60
2018-06-30T00:34:54.562Z,19.60
2018-06-30T00:37:22.990Z,19.50
2018-06-30T00:39:51.468Z,19.60
2018-06-30T00:42:20.075Z,19.40
2018-06-30T00:44:48.596Z,19.30
2018-06-30T00:47:17.023Z,19.30
2018-06-30T00:49:45.449Z,19.40
2018-06-30T00:54:41.985Z,19.00
2018-06-30T00:57:10.413Z,18.90
2018-06-30T00:59:38.819Z,18.90
2018-06-30T01:02:07.307Z,19.10
2018-06-30T01:04:35.707Z,19.10
2018-06-30T01:07:04.162Z,19.10
2018-06-30T01:09:32.609Z,19.10
2018-06-30T01:12:01.041Z,19.10
2018-06-30T01:14:29.459Z,19.20
2018-06-30T01:16:57.902Z,19.10
2018-06-30T01:19:26.326Z,19.00
2018-06-30T01:21:54.758Z,18.80
2018-06-30T01:24:23.164Z,18.70
2018-06-30T01:26:51.611Z,18.60
2018-06-30T01:29:20.022Z,18.60
2018-06-30T01:31:48.445Z,18.50
2018-06-30T01:34:16.844Z,18.50
2018-06-30T01:36:45.289Z,18.50
2018-06-30T01:39:13.696Z,18.60
2018-06-30T01:41:42.164Z,18.50
2018-06-30T01:44:10.562Z,18.50
2018-06-30T01:46:38.987Z,18.60
2018-06-30T01:49:07.383Z,18.50
2018-06-30T01:54:03.939Z,18.50
2018-06-30T01:59:00.451Z,18.50
2018-06-30T02:01:28.879Z,18.50
2018-06-30T02:03:57.323Z,18.40
2018-06-30T02:06:25.782Z,18.40
2018-06-30T02:08:54.171Z,18.40
2018-06-30T02:11:22.588Z,18.40
2018-06-30T02:16:19.113Z,18.30
2018-06-30T02:18:47.588Z,18.20
2018-06-30T02:21:15.992Z,18.20
2018-06-30T02:23:44.389Z,18.10
2018-06-30T02:26:12.811Z,18.10
2018-06-30T02:28:41.202Z,18.00
2018-06-30T02:31:09.611Z,18.00
2018-06-30T02:33:38.054Z,17.90
2018-06-30T02:36:06.470Z,17.80
2018-06-30T02:41:03.053Z,17.90
2018-06-30T02:43:31.476Z,17.90
2018-06-30T02:45:59.932Z,17.90
2018-06-30T02:48:28.379Z,17.90
2018-06-30T02:50:56.831Z,17.80
2018-06-30T02:53:25.270Z,17.80
2018-06-30T02:55:53.677Z,17.80
2018-06-30T02:58:22.093Z,17.80
2018-06-30T03:03:18.609Z,17.60
2018-06-30T03:05:47.008Z,17.40
2018-06-30T03:08:15.604Z,17.40
2018-06-30T03:10:44.017Z,17.40
2018-06-30T03:13:12.443Z,17.40
2018-06-30T03:15:40.841Z,17.40
2018-06-30T03:18:09.250Z,17.50
2018-06-30T03:20:37.698Z,17.60
2018-06-30T03:23:06.424Z,17.60
2018-06-30T03:25:34.859Z,17.60
2018-06-30T03:28:03.280Z,17.50
2018-06-30T03:30:31.693Z,17.50
2018-06-30T03:33:00.128Z,17.50
2018-06-30T03:35:28.557Z,17.60
2018-06-30T03:37:56.994Z,17.50
2018-06-30T03:40:25.436Z,17.50
2018-06-30T03:42:53.867Z,17.30
2018-06-30T03:45:22.290Z,17.30
2018-06-30T03:47:50.721Z,17.50
2018-06-30T03:50:19.171Z,17.70
2018-06-30T03:52:47.597Z,18.00
2018-06-30T03:55:16.013Z,18.00
2018-06-30T03:57:44.831Z,18.20
2018-06-30T04:00:13.247Z,18.20
2018-06-30T04:02:41.654Z,18.50
2018-06-30T04:05:22.280Z,18.90
2018-06-30T04:07:50.836Z,19.10
2018-06-30T04:12:47.592Z,19.20
2018-06-30T04:15:16.311Z,19.10
2018-06-30T04:17:45.000Z,19.00
2018-06-30T04:20:13.708Z,19.50
2018-06-30T04:22:42.372Z,19.70
2018-06-30T04:25:10.963Z,19.40
2018-06-30T04:27:39.446Z,19.90
2018-06-30T04:30:08.133Z,19.90
2018-06-30T04:32:36.655Z,19.90
2018-06-30T04:35:05.979Z,20.20
2018-06-30T04:37:34.705Z,20.70
2018-06-30T04:40:03.357Z,20.40
2018-06-30T04:42:31.875Z,20.30
2018-06-30T04:45:00.550Z,20.30
2018-06-30T04:47:29.665Z,20.80
2018-06-30T04:49:58.552Z,20.30
2018-06-30T04:52:27.023Z,19.80
2018-06-30T04:54:55.826Z,19.60
2018-06-30T04:57:24.344Z,20.10
2018-06-30T04:59:52.815Z,20.40
2018-06-30T05:02:21.378Z,20.40
2018-06-30T05:04:49.966Z,20.90
2018-06-30T05:07:18.508Z,21.00
2018-06-30T05:09:46.993Z,21.20
2018-06-30T05:12:15.432Z,21.10
2018-06-30T05:14:43.997Z,21.20
2018-06-30T05:17:12.581Z,21.20
2018-06-30T05:19:41.128Z,20.90
2018-06-30T05:22:09.612Z,20.90
2018-06-30T05:24:38.132Z,21.40
2018-06-30T05:27:07.045Z,21.40
2018-06-30T05:29:35.678Z,21.30
2018-06-30T05:32:04.360Z,21.30
2018-06-30T05:34:32.986Z,21.30
2018-06-30T05:37:01.470Z,21.10
2018-06-30T05:39:29.933Z,21.60
2018-06-30T05:41:58.467Z,21.70
2018-06-30T05:44:26.935Z,22.00
2018-06-30T05:46:55.469Z,22.20
2018-06-30T05:49:24.085Z,21.90
2018-06-30T05:51:52.586Z,22.00
2018-06-30T05:54:21.153Z,22.10
2018-06-30T05:56:49.615Z,22.10
2018-06-30T05:59:18.099Z,21.90
2018-06-30T06:01:46.809Z,21.60
2018-06-30T06:04:15.560Z,21.60
2018-06-30T06:06:44.250Z,21.70
2018-06-30T06:09:13.377Z,21.90
2018-06-30T06:11:42.547Z,22.10
2018-06-30T06:14:11.550Z,22.40
2018-06-30T06:16:40.197Z,22.60
2018-06-30T06:19:09.142Z,22.70
2018-06-30T06:21:37.615Z,22.60
2018-06-30T06:24:06.194Z,22.60
2018-06-30T06:26:34.772Z,23.00
2018-06-30T06:29:03.220Z,22.70
2018-06-30T06:31:31.686Z,22.80
2018-06-30T06:34:00.115Z,22.90
2018-06-30T06:36:28.561Z,22.90
2018-06-30T06:38:57.047Z,22.80
2018-06-30T06:41:26.746Z,22.60
2018-06-30T06:43:55.256Z,22.60
2018-06-30T06:46:23.671Z,22.50
2018-06-30T06:48:52.128Z,22.70
2018-06-30T06:51:20.553Z,22.60
2018-06-30T06:53:49.002Z,22.60
2018-06-30T06:56:17.454Z,22.70
2018-06-30T06:58:45.906Z,22.70
2018-06-30T07:01:14.341Z,22.60
2018-06-30T07:03:42.770Z,22.40
2018-06-30T07:06:11.168Z,22.50
2018-06-30T07:08:39.679Z,22.60
2018-06-30T07:11:08.107Z,22.80
2018-06-30T07:13:36.587Z,23.00
2018-06-30T07:16:05.066Z,23.00
2018-06-30T07:18:33.766Z,23.30
2018-06-30T07:21:02.341Z,23.40
2018-06-30T07:23:30.935Z,23.50
2018-06-30T07:25:59.520Z,23.70
2018-06-30T07:28:28.074Z,23.60
2018-06-30T07:33:24.762Z,24.00
2018-06-30T07:35:53.253Z,23.90
2018-06-30T07:38:21.831Z,23.90
2018-06-30T07:40:50.401Z,24.00
2018-06-30T07:43:21.793Z,23.90
2018-06-30T07:45:50.277Z,23.90
2018-06-30T07:48:18.800Z,24.10
2018-06-30T07:50:47.349Z,24.10
2018-06-30T07:53:16.008Z,24.10
2018-06-30T07:55:44.563Z,24.20
2018-06-30T07:58:13.165Z,24.50
2018-06-30T08:00:41.656Z,24.50
2018-06-30T08:03:10.219Z,24.40
2018-06-30T08:05:38.834Z,24.40
2018-06-30T08:08:07.403Z,24.30
2018-06-30T08:10:35.997Z,24.40
2018-06-30T08:13:04.439Z,24.60
2018-06-30T08:18:01.208Z,25.00
2018-06-30T08:20:29.743Z,24.90
2018-06-30T08:22:58.316Z,24.90
2018-06-30T08:25:26.926Z,25.00
2018-06-30T08:27:55.481Z,25.00
2018-06-30T08:30:24.121Z,25.00
2018-06-30T08:32:52.625Z,25.20
2018-06-30T08:35:21.300Z,25.10
2018-06-30T08:37:49.775Z,25.10
2018-06-30T08:40:18.303Z,25.30
2018-06-30T08:42:46.792Z,25.30
2018-06-30T08:45:15.245Z,25.20
2018-06-30T08:47:43.651Z,25.60
2018-06-30T08:50:12.165Z,25.80
2018-06-30T08:52:40.655Z,25.80
2018-06-30T08:55:09.184Z,25.80
2018-06-30T08:57:37.788Z,25.90
2018-06-30T09:00:06.545Z,25.90
2018-06-30T09:02:34.988Z,25.90
2018-06-30T09:05:03.623Z,25.90
2018-06-30T09:07:32.217Z,26.10
2018-06-30T09:10:01.101Z,26.20
2018-06-30T09:12:29.670Z,26.20
2018-06-30T09:14:58.151Z,26.30
2018-06-30T09:17:26.633Z,26.40
2018-06-30T09:19:55.048Z,26.40
2018-06-30T09:22:23.698Z,26.50
2018-06-30T09:24:52.188Z,26.30
2018-06-30T09:27:20.585Z,26.40
2018-06-30T09:29:49.264Z,26.50
2018-06-30T09:32:17.523Z,26.50
2018-06-30T09:34:46.035Z,26.80
2018-06-30T09:37:14.500Z,26.80
2018-06-30T09:39:42.953Z,26.90
2018-06-30T09:42:11.346Z,27.10
2018-06-30T09:44:39.795Z,27.20
2018-06-30T09:47:08.511Z,27.20
2018-06-30T09:49:36.888Z,27.20
2018-06-30T09:52:05.328Z,27.50
2018-06-30T09:54:33.727Z,27.50
2018-06-30T09:57:02.245Z,27.40
2018-06-30T09:59:30.729Z,27.30
2018-06-30T10:01:59.143Z,27.50
2018-06-30T10:04:27.659Z,27.70
2018-06-30T10:06:56.084Z,27.80
2018-06-30T10:09:24.483Z,27.90
2018-06-30T10:11:52.954Z,28.00
2018-06-30T10:14:21.315Z,28.00
2018-06-30T10:16:49.737Z,27.80
2018-06-30T10:19:18.175Z,28.10
2018-06-30T10:21:46.684Z,28.20
2018-06-30T10:24:15.049Z,28.30
2018-06-30T10:26:43.517Z,28.40
2018-06-30T10:29:11.868Z,28.50
2018-06-30T10:31:40.258Z,28.20
2018-06-30T10:34:08.618Z,27.80
2018-06-30T10:39:08.604Z,28.20
2018-06-30T10:41:36.968Z,28.30
2018-06-30T10:44:05.442Z,28.20
2018-06-30T10:46:33.851Z,28.40
2018-06-30T10:49:02.239Z,28.40
2018-06-30T10:51:30.624Z,28.60
2018-06-30T10:53:58.981Z,28.90
2018-06-30T10:56:27.393Z,28.50
2018-06-30T10:58:55.809Z,28.70
2018-06-30T11:01:24.307Z,28.80
2018-06-30T11:03:52.709Z,28.50
2018-06-30T11:06:21.095Z,28.60
2018-06-30T11:08:49.549Z,28.60
2018-06-30T11:11:17.995Z,28.90
2018-06-30T11:13:46.407Z,29.00
2018-06-30T11:16:14.790Z,29.10
2018-06-30T11:18:43.210Z,29.30
2018-06-30T11:21:11.598Z,29.40
2018-06-30T11:23:40.020Z,29.10
2018-06-30T11:26:08.386Z,29.00
2018-06-30T12:44:41.041Z,30.00
2018-06-30T12:50:12.035Z,29.90
2018-06-30T12:52:40.486Z,29.70
2018-06-30T12:55:09.060Z,30.00
2018-06-30T12:57:37.607Z,30.20
2018-06-30T13:00:06.295Z,30.30
2018-06-30T13:02:34.819Z,30.20
2018-06-30T13:05:03.514Z,30.20
2018-06-30T13:07:32.012Z,30.50
2018-06-30T13:10:00.582Z,30.50
2018-06-30T13:12:29.116Z,30.20
2018-06-30T13:14:57.606Z,30.30
2018-06-30T13:17:26.107Z,30.20
2018-06-30T13:19:54.661Z,30.20
2018-06-30T13:22:23.215Z,30.10
2018-06-30T13:24:51.723Z,30.30
2018-06-30T13:27:20.411Z,30.30
2018-06-30T13:29:48.898Z,30.10
2018-06-30T13:32:17.401Z,29.90
2018-06-30T13:34:45.856Z,30.20
2018-06-30T13:37:14.358Z,30.10
2018-06-30T13:39:42.894Z,30.30
2018-06-30T13:42:11.388Z,30.30
2018-06-30T13:44:39.922Z,30.30
2018-06-30T13:47:08.388Z,29.70
2018-06-30T13:49:36.976Z,30.00
2018-06-30T13:52:05.510Z,30.10
2018-06-30T13:54:33.948Z,30.10
2018-06-30T13:57:02.506Z,30.10
2018-06-30T13:59:30.939Z,30.10
2018-06-30T14:01:59.464Z,30.10
2018-06-30T14:04:27.981Z,30.00
2018-06-30T14:06:56.447Z,30.10
2018-06-30T14:09:25.134Z,29.80
2018-06-30T14:11:53.583Z,29.40
2018-06-30T14:14:22.043Z,29.60
2018-06-30T14:16:50.526Z,29.50
2018-06-30T14:19:18.974Z,29.60
2018-06-30T14:21:47.534Z,29.60
2018-06-30T14:24:15.963Z,29.30
2018-06-30T14:26:44.409Z,29.50
2018-06-30T14:29:12.834Z,29.80
2018-06-30T14:34:09.365Z,29.70
2018-06-30T14:36:37.843Z,29.70
2018-06-30T14:39:09.481Z,29.70
2018-06-30T14:41:38.264Z,29.70
2018-06-30T14:44:06.726Z,29.70
2018-06-30T14:46:35.275Z,30.00
2018-06-30T14:51:32.604Z,29.60
2018-06-30T14:54:01.221Z,29.60
2018-06-30T14:56:29.758Z,29.90
2018-06-30T14:58:58.164Z,29.70
2018-06-30T15:01:26.732Z,29.70
2018-06-30T15:03:55.183Z,29.40
2018-06-30T15:06:23.614Z,29.30
2018-06-30T15:08:52.061Z,29.30
2018-06-30T15:11:20.503Z,29.40
2018-06-30T15:13:48.930Z,29.30
2018-06-30T15:16:17.426Z,29.30
2018-06-30T15:18:45.936Z,29.40
2018-06-30T15:21:14.343Z,29.30
2018-06-30T15:23:42.786Z,29.30
2018-06-30T15:26:11.227Z,29.10
2018-06-30T15:28:39.667Z,29.20
2018-06-30T15:33:36.207Z,29.30
2018-06-30T15:36:04.802Z,29.20
2018-06-30T15:38:33.151Z,29.10
2018-06-30T15:41:01.584Z,29.00
2018-06-30T15:43:30.012Z,28.90
2018-06-30T15:45:58.459Z,28.90
2018-06-30T15:48:26.908Z,29.10
2018-06-30T15:53:23.509Z,28.90
2018-06-30T15:55:51.933Z,28.90
2018-06-30T15:58:20.433Z,28.90
2018-06-30T16:03:17.270Z,29.10
2018-06-30T16:05:45.690Z,29.00
2018-06-30T16:08:14.184Z,29.10
2018-06-30T16:10:42.590Z,29.20
2018-06-30T16:13:11.107Z,29.10
2018-06-30T16:15:39.507Z,29.00
2018-06-30T16:18:08.083Z,29.10
2018-06-30T16:20:36.559Z,29.10
2018-06-30T16:25:33.105Z,28.90
2018-06-30T16:30:29.611Z,29.00
2018-06-30T16:32:58.086Z,28.90
2018-06-30T16:35:26.547Z,29.00
2018-06-30T16:37:54.986Z,28.90
2018-06-30T16:40:23.450Z,28.70
2018-06-30T16:42:51.899Z,28.80
2018-06-30T16:45:20.303Z,28.50
2018-06-30T16:47:48.739Z,28.50
2018-06-30T16:50:17.146Z,28.30
2018-06-30T16:52:45.612Z,28.20
2018-06-30T16:55:14.101Z,28.20
2018-06-30T16:57:42.526Z,28.10
2018-06-30T17:00:11.055Z,28.00
2018-06-30T17:02:39.488Z,28.10
2018-06-30T17:05:07.943Z,28.10
2018-06-30T17:07:36.372Z,28.10
2018-06-30T17:10:04.864Z,28.20
2018-06-30T17:12:33.315Z,28.20
2018-06-30T17:15:01.776Z,28.10
2018-06-30T17:17:30.203Z,28.20
2018-06-30T17:19:58.744Z,28.10
2018-06-30T17:22:27.144Z,28.10
2018-06-30T17:27:23.667Z,28.00
2018-06-30T17:29:52.115Z,28.00
2018-06-30T17:32:20.515Z,28.00
2018-06-30T17:34:48.958Z,27.90
2018-06-30T17:37:17.428Z,27.90
2018-06-30T17:42:13.976Z,27.90
2018-06-30T17:44:42.505Z,27.90
2018-06-30T17:47:10.959Z,27.80
2018-06-30T17:49:39.409Z,28.00
2018-06-30T17:52:07.847Z,27.90
2018-06-30T17:54:36.275Z,27.70
2018-06-30T17:57:04.848Z,27.80
2018-06-30T17:59:33.283Z,27.70
2018-06-30T18:02:01.723Z,27.70
2018-06-30T18:04:30.159Z,27.70
2018-06-30T18:06:58.599Z,27.90
2018-06-30T18:09:27.133Z,27.80
2018-06-30T18:11:55.581Z,27.80
2018-06-30T18:14:24.043Z,27.80
2018-06-30T18:19:20.590Z,27.60
2018-06-30T18:21:49.030Z,27.70
2018-06-30T18:24:17.460Z,27.50
2018-06-30T18:29:14.045Z,26.60
2018-06-30T18:31:42.507Z,26.50
2018-06-30T18:34:10.959Z,26.30
2018-06-30T18:36:39.426Z,26.20
2018-06-30T18:39:10.367Z,26.10
2018-06-30T18:41:38.837Z,26.00
2018-06-30T18:44:07.635Z,26.00
2018-06-30T18:46:36.217Z,25.90
2018-06-30T18:49:05.116Z,25.70
2018-06-30T18:51:33.641Z,25.70
2018-06-30T18:54:02.102Z,25.60
2018-06-30T18:56:30.617Z,25.50
2018-06-30T18:58:59.029Z,25.40
2018-06-30T19:01:27.502Z,25.40
2018-06-30T19:03:55.932Z,25.30
2018-06-30T19:06:24.403Z,25.20
2018-06-30T19:08:52.885Z,25.20
2018-06-30T19:13:49.440Z,25.20
2018-06-30T19:16:17.961Z,25.00
2018-06-30T19:18:46.386Z,24.90
2018-06-30T19:21:14.810Z,25.00
2018-06-30T19:23:43.294Z,24.90
2018-06-30T19:26:11.744Z,25.00
2018-06-30T19:28:40.201Z,24.90
2018-06-30T19:31:08.867Z,24.90
2018-06-30T19:33:37.298Z,24.80
2018-06-30T19:38:33.944Z,24.70
2018-06-30T19:43:30.499Z,24.60
2018-06-30T19:48:27.067Z,24.50
2018-06-30T19:53:23.679Z,24.30
2018-06-30T19:55:52.035Z,24.30
2018-06-30T19:58:20.474Z,24.20
2018-06-30T20:00:48.873Z,24.10
2018-06-30T20:03:17.362Z,24.00
2018-06-30T20:05:45.783Z,24.00
2018-06-30T20:08:14.219Z,24.00
2018-06-30T20:10:42.695Z,23.90
2018-06-30T20:13:11.111Z,23.90
2018-06-30T20:15:39.537Z,23.80
2018-06-30T20:18:08.036Z,23.70
2018-06-30T20:20:36.476Z,23.70
2018-06-30T20:23:05.034Z,23.60
2018-06-30T20:25:33.446Z,23.60
2018-06-30T20:28:01.898Z,23.40
2018-06-30T20:30:30.350Z,23.30
2018-06-30T20:32:58.790Z,23.30
2018-06-30T20:35:27.233Z,23.30
2018-06-30T20:37:55.692Z,23.20
2018-06-30T20:40:24.119Z,23.10
2018-06-30T20:42:52.560Z,23.00
2018-06-30T20:45:21.139Z,22.90
2018-06-30T20:47:49.603Z,22.80
2018-06-30T20:50:17.948Z,22.80
2018-06-30T20:52:46.398Z,22.80
2018-06-30T20:55:14.854Z,22.70
2018-06-30T20:57:43.342Z,22.70
2018-06-30T21:00:11.847Z,22.60
2018-06-30T21:02:40.287Z,22.50
2018-06-30T21:07:37.720Z,22.30
2018-06-30T21:10:06.262Z,22.30
2018-06-30T21:12:34.761Z,22.20
2018-06-30T21:15:03.326Z,22.10
2018-06-30T21:17:31.827Z,22.10
2018-06-30T21:20:00.303Z,22.10
2018-06-30T21:22:28.787Z,22.00
2018-06-30T21:24:57.343Z,21.90
2018-06-30T21:27:25.832Z,21.90
2018-06-30T21:29:54.290Z,21.80
2018-06-30T21:34:57.404Z,21.80
2018-06-30T21:37:25.823Z,21.70
2018-06-30T21:39:54.247Z,21.70
2018-06-30T21:42:22.679Z,21.70
2018-06-30T21:44:51.146Z,21.60
2018-06-30T21:47:19.563Z,21.60
2018-06-30T21:49:48.198Z,21.60
2018-06-30T21:52:16.856Z,21.60
2018-06-30T21:54:45.300Z,21.50
2018-06-30T21:57:13.934Z,21.40
2018-06-30T21:59:42.406Z,21.40
2018-06-30T22:02:10.839Z,21.30
2018-06-30T22:04:39.402Z,21.20
2018-06-30T22:07:07.841Z,21.20
2018-06-30T22:09:36.284Z,21.20
2018-06-30T22:12:04.794Z,21.10
2018-06-30T22:14:33.253Z,21.10
2018-06-30T22:17:01.724Z,21.10
2018-06-30T22:19:30.339Z,21.10
2018-06-30T22:21:58.730Z,20.90
2018-06-30T22:24:27.198Z,20.90
2018-06-30T22:26:55.655Z,20.80
2018-06-30T22:29:24.102Z,20.80
2018-06-30T22:31:52.556Z,20.70
2018-06-30T22:34:21.029Z,20.70
2018-06-30T22:36:49.502Z,20.60
2018-06-30T22:39:29.345Z,20.60
2018-06-30T22:41:57.785Z,20.60
2018-06-30T22:44:26.263Z,20.50
2018-06-30T22:46:54.760Z,20.50
2018-06-30T22:49:23.248Z,20.30
2018-06-30T22:51:51.706Z,20.30
2018-06-30T22:54:20.257Z,20.30
2018-06-30T22:56:48.696Z,20.20
2018-06-30T22:59:17.399Z,20.10
2018-06-30T23:01:45.852Z,20.00
2018-06-30T23:04:14.298Z,20.00
2018-06-30T23:06:42.801Z,20.00
2018-06-30T23:09:11.263Z,20.00
2018-06-30T23:14:07.827Z,19.90
2018-06-30T23:19:04.518Z,19.80
2018-06-30T23:21:32.985Z,19.70
2018-06-30T23:24:01.408Z,19.70
2018-06-30T23:26:29.861Z,19.50
2018-06-30T23:28:58.283Z,19.50
2018-06-30T23:31:26.792Z,19.40
2018-06-30T23:36:23.453Z,19.20
2018-06-30T23:38:51.919Z,19.30
2018-06-30T23:41:20.440Z,19.30
2018-06-30T23:43:48.946Z,19.30
2018-06-30T23:46:17.450Z,19.20
2018-06-30T23:48:45.903Z,19.10
2018-06-30T23:51:14.450Z,19.00
2018-06-30T23:53:42.917Z,19.00
